Time;durP1;ratioP1;P1;durP2;ratioP2;P2;SDS_P1;SDS_P2;PMS_P1;PMS_P2;Temp;Humidity;BMP_temperature;BMP_pressure;BME280_temperature;BME280_humidity;BME280_pressure;Samples;Min_cycle;Max_cycle;Signal;HPM_P1;HPM_P2
2022/08/10 00:01:17;;;;;;;2.87;2.40;;;20.50;68.80;;;;;;6223782;28;20225;-61
2022/08/10 00:04:21;;;;;;;4.40;2.40;;;20.50;68.90;;;;;;6225276;28;20221;-61
2022/08/10 00:07:25;;;;;;;5.10;2.53;;;20.40;68.60;;;;;;6222212;28;20225;-61
2022/08/10 00:10:29;;;;;;;2.67;2.20;;;20.40;68.20;;;;;;6224146;28;20236;-61
2022/08/10 00:13:32;;;;;;;3.20;3.00;;;20.40;68.80;;;;;;6225078;28;20672;-61
2022/08/10 00:16:36;;;;;;;3.10;2.57;;;20.30;68.80;;;;;;6225274;28;20207;-61
2022/08/10 00:19:39;;;;;;;3.77;2.50;;;20.20;68.70;;;;;;6225511;28;20201;-61
2022/08/10 00:23:03;;;;;;;2.40;2.20;;;20.20;69.10;;;;;;6224354;28;20233;-62
2022/08/10 00:26:06;;;;;;;3.03;2.80;;;20.10;69.10;;;;;;6225908;28;20233;-62
2022/08/10 00:29:09;;;;;;;3.27;2.67;;;20.10;69.30;;;;;;6225640;28;20244;-61
2022/08/10 00:32:15;;;;;;;2.53;2.33;;;20.00;69.50;;;;;;6225917;28;20225;-61
2022/08/10 00:35:18;;;;;;;3.73;2.60;;;20.00;70.00;;;;;;6225337;28;20229;-61
2022/08/10 00:38:21;;;;;;;2.43;2.23;;;20.00;70.10;;;;;;6225314;28;20221;-61
2022/08/10 00:41:24;;;;;;;2.53;2.33;;;19.80;70.20;;;;;;6225567;28;20224;-61
2022/08/10 00:44:27;;;;;;;2.30;2.10;;;19.90;70.40;;;;;;6220777;28;20242;-61
2022/08/10 00:47:32;;;;;;;3.00;2.80;;;19.80;70.40;;;;;;6225492;28;20233;-61
2022/08/10 00:50:39;;;;;;;5.73;2.63;;;19.70;70.40;;;;;;6224732;28;20240;-61
2022/08/10 00:53:42;;;;;;;3.27;2.43;;;19.70;70.50;;;;;;6227437;28;20232;-61
2022/08/10 00:56:46;;;;;;;3.20;2.63;;;19.60;70.50;;;;;;6230103;28;20263;-61
2022/08/10 01:00:10;;;;;;;2.90;2.70;;;19.60;70.80;;;;;;6230397;28;20233;-61
2022/08/10 01:03:15;;;;;;;2.60;2.40;;;19.50;71.20;;;;;;6229581;28;20693;-62
2022/08/10 01:06:45;;;;;;;2.50;2.30;;;19.40;71.60;;;;;;6229528;28;20240;-62
2022/08/10 01:09:59;;;;;;;2.00;1.90;;;19.40;72.20;;;;;;6229782;28;20233;-62
2022/08/10 01:13:09;;;;;;;2.73;2.53;;;19.50;72.40;;;;;;6229835;28;20252;-61
2022/08/10 01:16:18;;;;;;;3.00;2.10;;;19.40;72.50;;;;;;6229574;28;20233;-61
2022/08/10 01:19:35;;;;;;;2.70;2.50;;;19.40;72.70;;;;;;6229628;28;20229;-61
2022/08/10 01:23:05;;;;;;;2.60;2.40;;;19.30;72.50;;;;;;6229139;28;20316;-61
2022/08/10 01:26:30;;;;;;;3.40;2.30;;;19.30;72.70;;;;;;6229243;28;20313;-61
2022/08/10 01:29:49;;;;;;;5.83;2.63;;;19.30;73.00;;;;;;6229676;28;20228;-61
2022/08/10 01:33:01;;;;;;;4.70;2.90;;;19.30;73.60;;;;;;6229609;28;20558;-61
2022/08/10 01:36:09;;;;;;;2.70;2.50;;;19.20;73.00;;;;;;6229321;28;20222;-61
2022/08/10 01:39:23;;;;;;;2.93;2.60;;;19.20;73.30;;;;;;6228960;28;20570;-61
2022/08/10 01:42:30;;;;;;;2.70;2.50;;;19.20;73.60;;;;;;6228752;28;20320;-61
2022/08/10 01:45:38;;;;;;;3.37;3.07;;;19.10;73.60;;;;;;6229109;28;20228;-61
2022/08/10 01:48:49;;;;;;;2.93;2.63;;;19.20;75.00;;;;;;6228944;28;20252;-61
2022/08/10 01:51:58;;;;;;;2.90;2.50;;;19.20;73.60;;;;;;6228627;28;20244;-61
2022/08/10 01:55:03;;;;;;;2.57;2.40;;;19.10;73.50;;;;;;6228417;28;20566;-61
2022/08/10 01:58:09;;;;;;;4.23;2.73;;;19.00;73.70;;;;;;6228601;28;20554;-61
2022/08/10 02:01:17;;;;;;;2.47;2.37;;;19.00;74.20;;;;;;6228057;28;20516;-61
2022/08/10 02:04:22;;;;;;;4.57;2.50;;;18.90;74.00;;;;;;6227491;28;20233;-61
2022/08/10 02:07:28;;;;;;;3.10;2.90;;;18.90;74.70;;;;;;6228339;28;20240;-61
2022/08/10 02:10:33;;;;;;;3.73;2.60;;;18.90;74.70;;;;;;6228331;28;20216;-61
2022/08/10 02:13:38;;;;;;;2.33;2.20;;;18.90;75.00;;;;;;6228043;28;20554;-62
2022/08/10 02:16:45;;;;;;;2.43;2.23;;;19.00;74.80;;;;;;6227986;28;20201;-62
2022/08/10 02:19:51;;;;;;;2.30;2.13;;;18.90;74.80;;;;;;6228291;28;20189;-62
2022/08/10 02:22:59;;;;;;;3.03;2.47;;;18.80;75.30;;;;;;6227595;28;20233;-62
2022/08/10 02:26:04;;;;;;;2.60;2.40;;;18.80;75.40;;;;;;6227970;28;20229;-62
2022/08/10 02:29:08;;;;;;;2.40;2.23;;;18.70;76.50;;;;;;6227745;28;20233;-62
2022/08/10 02:32:13;;;;;;;3.23;2.60;;;18.70;75.80;;;;;;6227040;28;20222;-62
2022/08/10 02:35:37;;;;;;;3.70;2.27;;;18.60;76.20;;;;;;6227455;28;20585;-62
2022/08/10 02:39:00;;;;;;;2.93;2.70;;;18.60;76.50;;;;;;6227558;28;20237;-62
2022/08/10 02:42:13;;;;;;;2.50;2.30;;;18.50;76.40;;;;;;6227125;28;20240;-62
2022/08/10 02:45:42;;;;;;;4.60;2.43;;;18.60;76.80;;;;;;6227086;28;20233;-61
2022/08/10 02:48:54;;;;;;;2.60;2.33;;;18.40;76.70;;;;;;6227259;28;20244;-61
2022/08/10 02:52:02;;;;;;;3.33;2.50;;;18.30;77.30;;;;;;6226861;28;20251;-61
2022/08/10 02:55:16;;;;;;;5.03;2.77;;;18.10;77.70;;;;;;6218574;28;20282;-61
2022/08/10 02:58:28;;;;;;;2.73;2.47;;;18.00;78.70;;;;;;6227270;28;20232;-62
2022/08/10 03:01:36;;;;;;;4.73;2.80;;;18.00;79.20;;;;;;6226977;28;20653;-61
2022/08/10 03:04:45;;;;;;;3.10;2.90;;;18.10;79.50;;;;;;6226950;28;20212;-61
2022/08/10 03:08:04;;;;;;;2.50;2.30;;;18.10;79.50;;;;;;6202350;28;20373;-61
2022/08/10 03:11:09;;;;;;;4.53;3.00;;;18.00;79.70;;;;;;6203038;28;20304;-61
2022/08/10 03:14:14;;;;;;;3.73;3.43;;;18.00;80.00;;;;;;6202769;28;20681;-62
2022/08/10 03:17:17;;;;;;;2.73;2.53;;;17.90;80.20;;;;;;6202619;28;20473;-61
2022/08/10 03:20:24;;;;;;;3.00;2.70;;;17.90;80.30;;;;;;6202590;28;20236;-61
2022/08/10 03:23:42;;;;;;;2.70;2.50;;;17.90;80.30;;;;;;6201666;28;20583;-62
2022/08/10 03:26:46;;;;;;;2.90;2.57;;;17.90;80.70;;;;;;6202587;28;20233;-61
2022/08/10 03:29:51;;;;;;;2.93;2.73;;;17.90;80.40;;;;;;6202274;28;20237;-61
2022/08/10 03:33:15;;;;;;;2.43;2.27;;;17.90;81.00;;;;;;6202220;28;20476;-61
2022/08/10 03:36:20;;;;;;;4.90;2.63;;;17.90;81.00;;;;;;6202510;28;20243;-61
2022/08/10 03:39:43;;;;;;;3.00;2.73;;;17.90;81.20;;;;;;6201417;28;20234;-61
2022/08/10 03:42:49;;;;;;;3.43;3.03;;;18.00;81.30;;;;;;6201718;28;20769;-62
2022/08/10 03:45:55;;;;;;;4.33;2.50;;;18.00;81.30;;;;;;6202024;28;20252;-62
2022/08/10 03:49:01;;;;;;;3.03;2.80;;;18.00;81.80;;;;;;6201577;28;20233;-62
2022/08/10 03:52:06;;;;;;;2.50;2.30;;;18.00;81.80;;;;;;6201555;28;20230;-62
2022/08/10 03:55:10;;;;;;;2.77;2.50;;;18.00;81.80;;;;;;6201133;28;20241;-62
2022/08/10 03:58:34;;;;;;;4.13;3.10;;;17.90;82.00;;;;;;6201171;28;20230;-61
2022/08/10 04:01:37;;;;;;;9.40;3.87;;;17.90;81.90;;;;;;6201332;28;20213;-61
2022/08/10 04:05:00;;;;;;;2.60;2.40;;;17.90;82.10;;;;;;6201256;28;20665;-62
2022/08/10 04:08:05;;;;;;;2.40;2.20;;;17.90;82.40;;;;;;6201799;28;20221;-61
2022/08/10 04:11:10;;;;;;;2.90;2.70;;;17.90;82.30;;;;;;6200772;28;20477;-61
2022/08/10 04:14:13;;;;;;;2.87;2.67;;;17.90;82.40;;;;;;6201338;28;20575;-61
2022/08/10 04:17:36;;;;;;;3.00;2.80;;;17.80;82.50;;;;;;6201089;28;20229;-61
2022/08/10 04:21:04;;;;;;;2.73;2.40;;;17.80;82.80;;;;;;6201308;28;20233;-61
2022/08/10 04:24:15;;;;;;;3.30;2.83;;;17.80;83.40;;;;;;6200859;28;20234;-62
2022/08/10 04:27:32;;;;;;;4.10;2.50;;;17.80;82.80;;;;;;6200617;28;20234;-63
2022/08/10 04:30:36;;;;;;;2.90;2.70;;;17.90;82.90;;;;;;6200906;28;20542;-62
2022/08/10 04:33:43;;;;;;;3.07;2.80;;;17.90;82.90;;;;;;6201231;28;20248;-61
2022/08/10 04:36:47;;;;;;;2.40;2.20;;;17.90;82.90;;;;;;6200894;28;20785;-61
2022/08/10 04:39:52;;;;;;;3.30;2.87;;;18.00;83.00;;;;;;6201551;28;20230;-60
2022/08/10 04:42:55;;;;;;;3.40;3.10;;;18.00;82.80;;;;;;6201049;28;20237;-60
2022/08/10 04:46:05;;;;;;;3.20;2.90;;;18.00;82.30;;;;;;6200308;28;20339;-60
2022/08/10 04:49:28;;;;;;;3.30;2.60;;;18.10;82.00;;;;;;6200679;28;20222;-61
2022/08/10 04:52:51;;;;;;;5.03;2.70;;;18.20;81.90;;;;;;6200037;28;20646;-60
2022/08/10 04:55:56;;;;;;;3.43;3.00;;;18.30;81.80;;;;;;6200464;28;20229;-61
2022/08/10 04:58:59;;;;;;;3.17;2.80;;;18.40;81.70;;;;;;6196021;28;20356;-62
2022/08/10 05:02:02;;;;;;;4.03;2.63;;;18.60;81.00;;;;;;6200515;28;20237;-62
2022/08/10 05:05:26;;;;;;;2.80;2.60;;;18.80;80.40;;;;;;6200664;28;20681;-61
2022/08/10 05:08:29;;;;;;;3.60;3.07;;;18.80;80.10;;;;;;6201027;28;20232;-61
2022/08/10 05:11:33;;;;;;;3.27;2.97;;;19.00;79.70;;;;;;6200378;28;20225;-62
2022/08/10 05:14:37;;;;;;;2.80;2.50;;;19.10;80.00;;;;;;6200571;28;20579;-61
2022/08/10 05:17:41;;;;;;;4.50;3.07;;;19.20;79.00;;;;;;6200351;28;20241;-62
2022/08/10 05:21:05;;;;;;;3.40;3.10;;;19.40;78.80;;;;;;6201016;28;20241;-62
2022/08/10 05:24:08;;;;;;;6.37;3.10;;;19.40;78.50;;;;;;6199837;28;20562;-61
2022/08/10 05:27:13;;;;;;;3.60;3.30;;;19.60;78.00;;;;;;6200216;28;20233;-61
2022/08/10 05:30:18;;;;;;;5.30;3.40;;;19.60;77.70;;;;;;6200245;28;20234;-62
2022/08/10 05:33:21;;;;;;;2.90;2.70;;;19.80;76.80;;;;;;6200188;28;20357;-62
2022/08/10 05:36:25;;;;;;;3.90;2.63;;;20.00;76.60;;;;;;6200544;28;20237;-61
2022/08/10 05:39:28;;;;;;;2.53;2.33;;;20.30;76.60;;;;;;6200684;28;20229;-61
2022/08/10 05:42:35;;;;;;;5.43;3.10;;;20.80;75.30;;;;;;6204772;28;20666;-59
2022/08/10 05:45:39;;;;;;;3.50;2.50;;;21.20;73.70;;;;;;6204431;28;20245;-59
2022/08/10 05:49:02;;;;;;;7.70;3.30;;;21.70;72.30;;;;;;6203747;28;20230;-58
2022/08/10 05:52:06;;;;;;;5.00;3.37;;;22.30;70.40;;;;;;6204202;28;20238;-59
2022/08/10 05:55:10;;;;;;;6.03;3.13;;;22.80;68.70;;;;;;6204400;28;20245;-59
2022/08/10 05:58:14;;;;;;;3.73;3.10;;;23.30;66.90;;;;;;6204333;28;20354;-59
2022/08/10 06:01:23;;;;;;;6.83;3.73;;;23.90;65.30;;;;;;6204458;28;20238;-59
2022/08/10 06:04:30;;;;;;;3.37;3.07;;;24.40;62.80;;;;;;6199097;28;20248;-60
2022/08/10 06:07:37;;;;;;;11.03;3.50;;;25.00;61.40;;;;;;6200348;28;20229;-59
2022/08/10 06:10:43;;;;;;;3.00;2.80;;;25.40;60.00;;;;;;6203777;28;20198;-59
2022/08/10 06:17:39;;;;;;;3.03;2.73;;;26.80;57.30;;;;;;6158946;28;20568;-59
2022/08/10 06:20:43;;;;;;;3.20;2.90;;;27.30;55.50;;;;;;6203256;28;20586;-59
2022/08/10 06:23:48;;;;;;;5.97;3.40;;;27.70;53.50;;;;;;6203529;28;20674;-59
2022/08/10 06:26:51;;;;;;;3.70;3.20;;;28.40;51.50;;;;;;6203565;28;20710;-61
2022/08/10 06:29:56;;;;;;;5.17;3.03;;;28.80;50.10;;;;;;6203843;28;20229;-59
2022/08/10 06:33:02;;;;;;;9.00;4.27;;;29.40;49.10;;;;;;6203795;28;20242;-60
2022/08/10 06:36:07;;;;;;;5.80;2.67;;;29.80;47.80;;;;;;6203432;28;20236;-61
2022/08/10 06:39:11;;;;;;;3.87;2.30;;;30.40;46.90;;;;;;6202660;28;20236;-60
2022/08/10 06:42:39;;;;;;;5.83;3.00;;;30.80;45.80;;;;;;6217623;28;20229;-60
2022/08/10 06:45:48;;;;;;;4.53;2.60;;;31.30;44.40;;;;;;6227305;28;20571;-60
2022/08/10 06:49:11;;;;;;;4.63;3.17;;;31.90;43.60;;;;;;6227366;28;20248;-60
2022/08/10 06:52:16;;;;;;;4.13;2.72;;;32.30;42.30;;;;;;6226285;28;20316;-62
2022/08/10 06:55:23;;;;;;;4.47;2.50;;;32.90;41.30;;;;;;6225207;28;20306;-62
2022/08/10 06:58:49;;;;;;;2.65;2.45;;;33.40;39.60;;;;;;6225949;28;20236;-61
2022/08/10 07:01:58;;;;;;;2.90;2.40;;;33.80;38.50;;;;;;6223650;28;20231;-61
2022/08/10 07:05:04;;;;;;;4.65;2.10;;;34.30;37.50;;;;;;6225620;28;20238;-61
2022/08/10 07:08:09;;;;;;;3.72;2.38;;;34.80;37.00;;;;;;6212635;28;20572;-61
2022/08/10 07:11:14;;;;;;;3.53;2.03;;;35.40;35.70;;;;;;6225348;28;20235;-61
2022/08/10 07:14:20;;;;;;;4.60;2.38;;;36.00;34.80;;;;;;6224021;28;20648;-61
2022/08/10 07:17:26;;;;;;;2.58;2.10;;;36.50;34.20;;;;;;6225747;28;20224;-61
2022/08/10 07:20:32;;;;;;;3.90;2.20;;;37.20;33.40;;;;;;6226680;28;20228;-60
2022/08/10 07:23:38;;;;;;;2.65;2.10;;;37.90;32.00;;;;;;6226042;28;20676;-60
2022/08/10 07:27:03;;;;;;;5.78;2.10;;;38.50;31.40;;;;;;6227156;28;20243;-60
2022/08/10 07:30:08;;;;;;;4.88;3.22;;;38.90;30.50;;;;;;6226646;28;20551;-60
2022/08/10 07:33:16;;;;;;;2.72;2.38;;;39.30;29.90;;;;;;6225386;28;20243;-61
2022/08/10 07:36:21;;;;;;;3.13;2.38;;;37.70;30.80;;;;;;6225747;28;20681;-61
2022/08/10 07:39:28;;;;;;;5.50;3.35;;;35.30;33.30;;;;;;6223598;28;20231;-61
2022/08/10 07:42:56;;;;;;;7.78;3.97;;;33.20;37.10;;;;;;6226184;28;20244;-60
2022/08/10 07:46:01;;;;;;;2.72;2.42;;;32.30;39.20;;;;;;6224377;28;20232;-61
2022/08/10 07:49:17;;;;;;;2.92;2.72;;;31.60;39.30;;;;;;6225550;28;20307;-61
2022/08/10 07:52:22;;;;;;;2.85;2.65;;;31.50;40.10;;;;;;6225607;28;20239;-62
2022/08/10 07:55:26;;;;;;;3.28;2.83;;;31.90;39.50;;;;;;6225155;28;20224;-63
2022/08/10 07:58:52;;;;;;;3.65;2.35;;;31.40;40.30;;;;;;6224570;28;20221;-63
2022/08/10 08:01:57;;;;;;;2.80;2.60;;;34.00;38.30;;;;;;6222718;28;20244;-62
2022/08/10 08:05:07;;;;;;;2.92;2.67;;;36.00;35.80;;;;;;6225083;28;20345;-61
2022/08/10 08:08:13;;;;;;;6.22;2.65;;;36.90;33.60;;;;;;6225985;28;20247;-61
2022/08/10 08:11:18;;;;;;;2.95;2.40;;;38.20;32.30;;;;;;6214591;28;20225;-63
2022/08/10 08:14:29;;;;;;;3.22;2.80;;;39.60;32.00;;;;;;6225646;28;20271;-64
2022/08/10 08:17:33;;;;;;;3.03;2.55;;;41.60;29.00;;;;;;6224873;28;20520;-62
2022/08/10 08:20:40;;;;;;;4.50;2.30;;;39.30;29.30;;;;;;6224570;28;20308;-62
2022/08/10 08:23:47;;;;;;;2.75;2.35;;;37.90;30.30;;;;;;6224817;28;20240;-62
2022/08/10 08:27:13;;;;;;;3.47;2.70;;;38.10;31.30;;;;;;6225014;28;20232;-61
2022/08/10 08:30:17;;;;;;;2.90;2.10;;;39.80;29.40;;;;;;6224617;28;20727;-61
2022/08/10 08:33:31;;;;;;;2.55;2.35;;;38.80;29.40;;;;;;6224740;28;20684;-66
2022/08/10 08:36:49;;;;;;;2.75;2.13;;;36.80;31.10;;;;;;6225153;28;20240;-61
2022/08/10 08:39:52;;;;;;;4.15;2.15;;;35.00;33.50;;;;;;6224461;28;20224;-61
2022/08/10 08:43:13;;;;;;;2.63;2.42;;;33.70;35.50;;;;;;6224727;28;20236;-61
2022/08/10 08:46:44;;;;;;;2.58;2.38;;;32.90;36.90;;;;;;6224995;28;20366;-61
2022/08/10 08:50:00;;;;;;;2.63;2.42;;;32.80;37.70;;;;;;6224685;28;20217;-62
2022/08/10 08:53:28;;;;;;;5.07;2.70;;;32.00;38.70;;;;;;6224988;28;20232;-61
2022/08/10 08:57:03;;;;;;;4.15;2.45;;;30.60;40.50;;;;;;6224537;28;20233;-60
2022/08/10 09:00:12;;;;;;;5.43;2.85;;;29.90;42.50;;;;;;6224312;28;20267;-60
2022/08/10 09:03:36;;;;;;;4.38;2.75;;;29.80;42.80;;;;;;6224727;28;20788;-60
2022/08/10 09:07:07;;;;;;;2.95;2.40;;;30.20;43.10;;;;;;6221831;28;20574;-61
2022/08/10 09:10:52;;;;;;;3.08;2.78;;;30.40;42.40;;;;;;6194073;28;20688;-60
2022/08/10 09:14:01;;;;;;;3.22;2.95;;;30.80;41.60;;;;;;6221195;28;20232;-60
2022/08/10 09:17:20;;;;;;;3.47;2.70;;;30.90;41.60;;;;;;6229246;28;20232;-60
2022/08/10 09:20:36;;;;;;;4.50;2.80;;;31.00;41.00;;;;;;6229287;28;20254;-59
2022/08/10 09:23:47;;;;;;;3.08;2.60;;;31.00;41.00;;;;;;6228938;28;20232;-58
2022/08/10 09:27:18;;;;;;;4.22;3.10;;;30.30;41.80;;;;;;6228528;28;20239;-58
2022/08/10 09:30:30;;;;;;;4.43;2.72;;;30.00;42.70;;;;;;6228213;28;20229;-59
2022/08/10 09:33:49;;;;;;;3.30;3.00;;;29.90;42.30;;;;;;6227552;28;20252;-59
2022/08/10 09:37:19;;;;;;;3.20;2.88;;;29.60;43.30;;;;;;6227015;28;20224;-59
2022/08/10 09:40:29;;;;;;;7.45;3.03;;;29.50;43.50;;;;;;6226907;28;20248;-60
2022/08/10 09:44:05;;;;;;;5.30;2.95;;;29.60;43.70;;;;;;6225247;28;20263;-62
2022/08/10 09:47:22;;;;;;;2.95;2.65;;;29.80;43.50;;;;;;6227515;28;20235;-61
2022/08/10 09:50:56;;;;;;;2.63;2.25;;;30.10;43.00;;;;;;6226180;28;20220;-60
2022/08/10 09:54:43;;;;;;;4.13;2.40;;;30.30;43.50;;;;;;6227797;28;20243;-62
2022/08/10 09:57:58;;;;;;;3.45;3.15;;;30.70;42.80;;;;;;6228285;28;20233;-60
2022/08/10 10:01:11;;;;;;;3.83;3.10;;;30.50;42.10;;;;;;6227072;28;20318;-60
2022/08/10 10:04:42;;;;;;;4.22;2.90;;;30.60;43.40;;;;;;6227496;28;20641;-61
2022/08/10 10:07:53;;;;;;;2.95;2.75;;;30.10;41.80;;;;;;6227552;28;20193;-62
2022/08/10 10:11:04;;;;;;;2.95;2.67;;;29.70;42.00;;;;;;6226151;28;20229;-60
2022/08/10 10:14:23;;;;;;;3.08;2.30;;;29.40;42.10;;;;;;6226534;28;20228;-60
2022/08/10 10:17:42;;;;;;;3.67;2.83;;;29.50;42.50;;;;;;6226000;28;20243;-60
2022/08/10 10:20:55;;;;;;;3.03;2.73;;;29.90;42.10;;;;;;6226064;28;20633;-60
2022/08/10 10:24:06;;;;;;;2.65;2.45;;;29.60;42.00;;;;;;6227010;28;20232;-60
2022/08/10 10:27:36;;;;;;;3.50;3.00;;;29.80;42.40;;;;;;6226360;28;20579;-60
2022/08/10 10:30:49;;;;;;;2.90;2.25;;;30.10;43.60;;;;;;6203028;28;20240;-60
2022/08/10 10:34:03;;;;;;;2.80;2.50;;;30.30;41.80;;;;;;6222674;28;20236;-60
2022/08/10 10:37:10;;;;;;;2.10;1.90;;;30.60;41.70;;;;;;6227486;28;20553;-60
2022/08/10 10:40:14;;;;;;;2.00;1.90;;;30.60;40.50;;;;;;6227265;28;20232;-60
2022/08/10 10:43:36;;;;;;;2.95;2.65;;;30.80;40.30;;;;;;6227508;28;20279;-61
2022/08/10 10:46:54;;;;;;;3.30;3.00;;;30.50;40.70;;;;;;6227279;28;20221;-60
2022/08/10 10:50:06;;;;;;;3.92;3.17;;;30.10;41.60;;;;;;6227274;28;20328;-60
2022/08/10 10:53:18;;;;;;;4.05;2.60;;;30.00;42.20;;;;;;6227206;28;20235;-60
2022/08/10 10:56:30;;;;;;;2.72;2.53;;;29.90;42.20;;;;;;6226873;28;20243;-59
2022/08/10 10:59:43;;;;;;;5.05;2.75;;;30.10;43.00;;;;;;6227064;28;20240;-59
2022/08/10 11:03:31;;;;;;;6.15;2.60;;;30.30;42.00;;;;;;6226458;28;20236;-60
2022/08/10 11:06:49;;;;;;;2.45;2.25;;;30.50;42.10;;;;;;6223408;28;20232;-60
2022/08/10 11:09:57;;;;;;;6.22;3.03;;;30.50;41.50;;;;;;6226460;28;20574;-60
2022/08/10 11:13:37;;;;;;;3.53;2.50;;;30.50;40.70;;;;;;6226437;28;20243;-60
2022/08/10 11:17:05;;;;;;;2.95;2.75;;;30.40;40.30;;;;;;6226213;28;20233;-60
2022/08/10 11:20:14;;;;;;;3.80;2.60;;;30.60;40.20;;;;;;6226404;28;20567;-60
2022/08/10 11:23:28;;;;;;;2.92;2.63;;;30.50;40.30;;;;;;6217654;28;20239;-60
2022/08/10 11:26:36;;;;;;;3.75;2.53;;;30.30;40.50;;;;;;6226192;28;20251;-60
2022/08/10 11:29:51;;;;;;;3.28;2.85;;;30.40;40.10;;;;;;6225415;28;20582;-60
2022/08/10 11:33:10;;;;;;;4.20;2.80;;;30.20;40.70;;;;;;6226253;28;20239;-60
2022/08/10 11:36:22;;;;;;;3.30;2.45;;;30.20;40.20;;;;;;6226130;28;20232;-60
2022/08/10 11:39:43;;;;;;;3.03;2.60;;;30.50;38.90;;;;;;6226279;28;20228;-60
2022/08/10 11:42:59;;;;;;;5.75;2.92;;;30.90;38.10;;;;;;6226202;28;20237;-60
2022/08/10 11:46:19;;;;;;;2.95;2.75;;;31.10;38.30;;;;;;6225929;28;20574;-60
2022/08/10 11:49:35;;;;;;;2.92;2.72;;;31.20;39.00;;;;;;6225441;28;20228;-60
2022/08/10 11:52:45;;;;;;;3.50;2.88;;;31.20;38.30;;;;;;6226140;28;20235;-60
2022/08/10 11:55:55;;;;;;;2.92;2.47;;;31.30;38.50;;;;;;6225659;28;20196;-60
2022/08/10 12:02:22;;;;;;;4.43;2.70;;;31.00;39.40;;;;;;6225657;28;20229;-60
2022/08/10 12:05:29;;;;;;;2.67;2.30;;;30.80;38.90;;;;;;6225461;28;20710;-60
2022/08/10 12:08:54;;;;;;;2.70;2.50;;;30.50;38.50;;;;;;6225690;28;20273;-60
2022/08/10 12:12:19;;;;;;;3.55;2.55;;;30.60;38.60;;;;;;6225334;28;20240;-60
2022/08/10 12:15:32;;;;;;;3.15;2.35;;;31.10;38.40;;;;;;6225474;28;20243;-60
2022/08/10 12:18:44;;;;;;;4.03;2.67;;;31.20;37.80;;;;;;6217418;28;20229;-59
2022/08/10 12:21:54;;;;;;;2.90;2.53;;;31.30;38.30;;;;;;6200836;28;20585;-60
2022/08/10 12:25:00;;;;;;;2.33;2.13;;;31.50;38.30;;;;;;6208542;28;20234;-60
2022/08/10 12:28:10;;;;;;;3.10;2.17;;;31.20;37.90;;;;;;6213270;28;20227;-61
2022/08/10 12:31:16;;;;;;;3.78;2.65;;;31.00;38.90;;;;;;6200748;28;20233;-61
2022/08/10 12:34:26;;;;;;;3.13;2.60;;;31.30;39.00;;;;;;6200837;28;20233;-60
2022/08/10 12:37:35;;;;;;;3.70;2.42;;;31.50;38.50;;;;;;6200936;28;20588;-60
2022/08/10 12:40:44;;;;;;;5.70;2.65;;;31.50;38.10;;;;;;6200777;28;20210;-59
2022/08/10 12:43:53;;;;;;;2.58;2.38;;;31.30;37.90;;;;;;6200677;28;20229;-59
2022/08/10 12:47:21;;;;;;;3.85;2.30;;;30.90;38.20;;;;;;6200426;28;20323;-60
2022/08/10 12:50:33;;;;;;;4.20;2.67;;;30.30;39.70;;;;;;6223326;28;20235;-59
2022/08/10 12:53:47;;;;;;;2.90;2.63;;;30.60;40.10;;;;;;6229365;28;20315;-59
2022/08/10 12:57:02;;;;;;;2.65;2.25;;;30.90;39.50;;;;;;6228901;28;20233;-60
2022/08/10 13:00:09;;;;;;;2.72;2.53;;;31.10;39.30;;;;;;6227924;28;20248;-60
2022/08/10 13:03:22;;;;;;;2.88;2.67;;;31.30;38.50;;;;;;6229532;28;20672;-60
2022/08/10 13:06:48;;;;;;;4.28;2.47;;;31.30;37.20;;;;;;6229610;28;20252;-59
2022/08/10 13:09:52;;;;;;;2.95;2.75;;;31.20;37.40;;;;;;6228640;28;20232;-59
2022/08/10 13:13:00;;;;;;;2.20;2.00;;;30.90;37.60;;;;;;6229028;28;20232;-61
2022/08/10 13:16:06;;;;;;;3.88;2.50;;;30.70;37.80;;;;;;6228989;28;20240;-60
2022/08/10 13:19:13;;;;;;;3.05;2.75;;;30.50;38.30;;;;;;6228400;28;21683;-61
2022/08/10 13:22:17;;;;;;;2.38;2.17;;;30.20;38.80;;;;;;6225326;28;20561;-60
2022/08/10 13:25:29;;;;;;;2.55;2.35;;;30.20;39.30;;;;;;6228329;28;20645;-60
2022/08/10 13:28:38;;;;;;;4.05;2.55;;;30.30;39.10;;;;;;6227208;28;20700;-60
2022/08/10 13:31:53;;;;;;;2.90;2.70;;;30.60;37.70;;;;;;6227779;28;20224;-60
2022/08/10 13:35:16;;;;;;;2.40;2.20;;;30.90;37.60;;;;;;6228109;28;20231;-60
2022/08/10 13:38:21;;;;;;;2.78;2.55;;;31.00;37.20;;;;;;6224973;28;21127;-61
2022/08/10 13:41:29;;;;;;;3.97;2.47;;;31.10;36.30;;;;;;6228313;28;20676;-61
2022/08/10 13:44:37;;;;;;;3.00;2.70;;;31.30;37.20;;;;;;6226995;28;20673;-61
2022/08/10 13:47:43;;;;;;;2.92;2.63;;;31.20;37.40;;;;;;6227631;28;20236;-60
2022/08/10 13:50:57;;;;;;;2.20;2.08;;;30.90;37.70;;;;;;6228216;28;20225;-61
2022/08/10 13:54:01;;;;;;;7.00;2.53;;;30.70;37.90;;;;;;6226271;28;20239;-61
2022/08/10 13:57:05;;;;;;;3.53;2.70;;;30.70;37.60;;;;;;6227449;28;20819;-60
2022/08/10 14:00:10;;;;;;;4.10;3.40;;;30.40;37.50;;;;;;6227350;28;20228;-60
2022/08/10 14:03:38;;;;;;;3.28;2.50;;;30.30;38.30;;;;;;6228006;28;20654;-61
2022/08/10 14:06:48;;;;;;;2.50;2.25;;;30.40;38.30;;;;;;6227933;28;20696;-60
2022/08/10 14:09:53;;;;;;;3.47;2.88;;;30.40;38.20;;;;;;6227614;28;20229;-60
2022/08/10 14:13:01;;;;;;;2.65;2.40;;;30.40;38.00;;;;;;6227650;28;20252;-60
2022/08/10 14:16:07;;;;;;;2.67;2.47;;;30.40;38.10;;;;;;6227518;28;20689;-60
2022/08/10 14:19:16;;;;;;;3.80;2.63;;;30.40;38.00;;;;;;6227383;28;20230;-60
2022/08/10 14:22:20;;;;;;;2.45;2.25;;;30.30;37.80;;;;;;6226917;28;20246;-61
2022/08/10 14:25:47;;;;;;;3.72;2.40;;;30.20;38.10;;;;;;6227649;28;20216;-61
2022/08/10 14:28:54;;;;;;;3.40;2.83;;;30.20;38.70;;;;;;6227293;28;20193;-62
2022/08/10 14:31:59;;;;;;;3.95;2.67;;;30.10;38.30;;;;;;6227669;28;20254;-62
2022/08/10 14:35:08;;;;;;;3.30;3.00;;;30.00;38.90;;;;;;6227903;28;20318;-59
2022/08/10 14:38:35;;;;;;;3.00;2.70;;;29.90;38.20;;;;;;6227220;28;20702;-60
2022/08/10 14:41:40;;;;;;;3.15;2.58;;;29.70;39.00;;;;;;6227463;28;20880;-60
2022/08/10 14:45:11;;;;;;;2.80;2.60;;;29.60;39.10;;;;;;6227243;28;20251;-60
2022/08/10 14:48:18;;;;;;;3.00;2.57;;;29.50;38.80;;;;;;6227155;28;20233;-61
2022/08/10 14:51:29;;;;;;;2.83;2.13;;;29.60;39.10;;;;;;6227329;28;20271;-61
2022/08/10 14:54:49;;;;;;;2.73;2.53;;;29.60;38.70;;;;;;6226345;28;20570;-59
2022/08/10 14:57:52;;;;;;;5.17;2.93;;;29.50;38.80;;;;;;6226909;28;20676;-60
2022/08/10 15:01:18;;;;;;;2.50;2.30;;;29.50;38.80;;;;;;6226822;28;20225;-60
2022/08/10 15:04:24;;;;;;;2.70;2.30;;;29.30;38.90;;;;;;6226815;28;20232;-60
2022/08/10 15:07:33;;;;;;;3.07;2.73;;;29.30;39.30;;;;;;6226810;28;20235;-59
2022/08/10 15:10:37;;;;;;;2.90;2.50;;;29.30;39.50;;;;;;6226233;28;20669;-59
2022/08/10 15:13:44;;;;;;;3.47;2.47;;;29.30;39.40;;;;;;6226487;28;20568;-60
2022/08/10 15:17:10;;;;;;;2.30;2.10;;;29.30;39.00;;;;;;6225481;28;20681;-59
2022/08/10 15:20:17;;;;;;;3.13;2.40;;;29.30;39.00;;;;;;6224844;28;20673;-59
2022/08/10 15:23:27;;;;;;;3.37;2.67;;;29.40;38.40;;;;;;6224194;28;20666;-59
2022/08/10 15:26:36;;;;;;;2.23;2.03;;;29.50;38.30;;;;;;6224037;28;20311;-61
2022/08/10 15:29:55;;;;;;;3.27;2.00;;;29.50;37.80;;;;;;6224052;28;20620;-60
2022/08/10 15:40:32;;;;;;;2.47;2.28;;;29.80;37.00;;;;;;6218348;28;20240;-60
2022/08/10 15:43:54;;;;;;;2.25;2.03;;;29.90;36.20;;;;;;6223945;28;20676;-60
2022/08/10 15:47:02;;;;;;;2.30;1.70;;;29.80;36.20;;;;;;6224419;28;20224;-60
2022/08/10 15:50:08;;;;;;;2.35;2.15;;;29.70;36.40;;;;;;6225834;28;20689;-60
2022/08/10 15:53:15;;;;;;;2.38;1.98;;;29.80;36.50;;;;;;6225943;28;20239;-60
2022/08/10 15:56:27;;;;;;;2.58;2.08;;;29.80;35.90;;;;;;6225658;28;20551;-60
2022/08/10 15:59:33;;;;;;;2.10;1.90;;;29.70;36.30;;;;;;6225743;28;20283;-60
2022/08/10 16:02:46;;;;;;;1.83;1.73;;;29.40;35.20;;;;;;6225839;28;20228;-60
2022/08/10 16:05:51;;;;;;;2.13;1.70;;;29.20;35.80;;;;;;6225946;28;20313;-60
2022/08/10 16:09:11;;;;;;;4.50;1.60;;;29.00;36.00;;;;;;6225300;28;20593;-60
2022/08/10 16:12:40;;;;;;;2.17;1.97;;;28.90;36.10;;;;;;6225328;28;20271;-60
2022/08/10 16:15:53;;;;;;;2.70;1.90;;;28.80;36.30;;;;;;6225597;28;20676;-60
2022/08/10 16:18:56;;;;;;;2.53;1.97;;;28.70;36.00;;;;;;6225576;28;20232;-60
2022/08/10 16:22:03;;;;;;;2.47;2.23;;;28.60;35.60;;;;;;6225122;28;20690;-60
2022/08/10 16:25:28;;;;;;;2.07;1.60;;;28.40;36.20;;;;;;6224490;28;20233;-60
2022/08/10 16:29:01;;;;;;;1.93;1.80;;;28.30;36.50;;;;;;6224977;28;20224;-60
2022/08/10 16:32:07;;;;;;;1.77;1.57;;;28.20;36.90;;;;;;6224600;28;20224;-59
2022/08/10 16:35:16;;;;;;;3.10;1.90;;;28.10;37.20;;;;;;6224867;28;20228;-60
2022/08/10 16:38:21;;;;;;;1.70;1.60;;;28.10;37.10;;;;;;6224915;28;20216;-60
2022/08/10 16:41:27;;;;;;;2.27;2.07;;;28.10;37.40;;;;;;6217909;28;20237;-59
2022/08/10 16:44:56;;;;;;;3.40;2.17;;;28.10;37.50;;;;;;6222720;28;20233;-60
2022/08/10 16:48:00;;;;;;;2.50;2.30;;;28.20;37.10;;;;;;6224530;28;20239;-59
2022/08/10 16:51:04;;;;;;;2.10;1.80;;;28.30;37.20;;;;;;6224545;28;20221;-59
2022/08/10 16:54:09;;;;;;;4.23;1.63;;;28.30;37.40;;;;;;6223833;28;20220;-59